Time;durP1;ratioP1;P1;durP2;ratioP2;P2;SDS_P1;SDS_P2;PMS_P1;PMS_P2;Temp;Humidity;BMP_temperature;BMP_pressure;BME280_temperature;BME280_humidity;BME280_pressure;Samples;Min_cycle;Max_cycle;Signal;HPM_P1;HPM_P2
2023/11/02 00:01:05;;;;;;;3.90;3.50;;;;;;;;;;4943921;29;20318;-68
2023/11/02 00:03:34;;;;;;;4.07;2.65;;;;;;;;;;4944987;29;20271;-68
2023/11/02 00:06:26;;;;;;;2.97;2.42;;;;;;;;;;4948093;29;20280;-68
2023/11/02 00:09:05;;;;;;;2.83;2.22;;;;;;;;;;4928252;29;20299;-67
2023/11/02 00:11:53;;;;;;;2.55;2.03;;;;;;;;;;4942529;29;20271;-69
2023/11/02 00:14:23;;;;;;;1.95;1.85;;;;;;;;;;4934854;29;20626;-69
2023/11/02 00:16:52;;;;;;;3.05;1.95;;;;;;;;;;4956123;28;20268;-68
2023/11/02 00:19:30;;;;;;;1.90;1.73;;;;;;;;;;4939393;29;20284;-69
2023/11/02 00:21:58;;;;;;;1.67;1.58;;;;;;;;;;4943329;29;20267;-68
2023/11/02 00:24:28;;;;;;;2.42;2.22;;;;;;;;;;4942673;29;20260;-69
2023/11/02 00:26:57;;;;;;;3.58;3.38;;;;;;;;;;4943766;29;20283;-68
2023/11/02 00:29:27;;;;;;;2.60;2.40;;;;;;;;;;4941390;29;20200;-69
2023/11/02 00:31:55;;;;;;;6.32;5.68;;;;;;;;;;4941735;29;20252;-69
2023/11/02 00:34:23;;;;;;;3.50;2.30;;;;;;;;;;4942179;29;20285;-68
2023/11/02 00:36:52;;;;;;;5.22;2.30;;;;;;;;;;4943320;29;20260;-68
2023/11/02 00:39:21;;;;;;;1.65;1.55;;;;;;;;;;4955631;29;20251;-68
2023/11/02 00:41:49;;;;;;;3.65;2.10;;;;;;;;;;4961000;29;20304;-69
2023/11/02 00:44:18;;;;;;;2.45;2.13;;;;;;;;;;4953347;28;20303;-68
2023/11/02 00:46:47;;;;;;;3.28;2.00;;;;;;;;;;4943947;29;20284;-64
2023/11/02 00:49:20;;;;;;;4.90;1.88;;;;;;;;;;4939994;29;20568;-64
2023/11/02 00:51:53;;;;;;;2.70;1.70;;;;;;;;;;4946593;29;20200;-65
2023/11/02 00:54:45;;;;;;;1.95;1.85;;;;;;;;;;4926659;29;20197;-64
2023/11/02 00:57:13;;;;;;;3.58;1.80;;;;;;;;;;4944251;29;20199;-64
2023/11/02 00:59:44;;;;;;;2.53;2.30;;;;;;;;;;4939234;29;20208;-64
2023/11/02 01:02:15;;;;;;;4.25;1.42;;;;;;;;;;4934732;29;20215;-64
2023/11/02 01:04:51;;;;;;;2.17;1.98;;;;;;;;;;4943211;29;20200;-64
2023/11/02 01:07:19;;;;;;;2.38;1.92;;;;;;;;;;4953155;29;20258;-64
2023/11/02 01:09:55;;;;;;;1.90;1.80;;;;;;;;;;4953675;29;20208;-65
2023/11/02 01:12:25;;;;;;;4.60;2.20;;;;;;;;;;4940960;29;20230;-64
2023/11/02 01:14:53;;;;;;;1.92;1.83;;;;;;;;;;4943780;29;20197;-64
2023/11/02 01:17:30;;;;;;;3.17;2.40;;;;;;;;;;4935204;29;20660;-64
2023/11/02 01:20:03;;;;;;;3.03;2.30;;;;;;;;;;4944561;29;20193;-64
2023/11/02 01:22:40;;;;;;;5.57;2.40;;;;;;;;;;4943169;29;20204;-64
2023/11/02 01:25:11;;;;;;;4.20;3.17;;;;;;;;;;4954477;29;20196;-64
2023/11/02 01:27:39;;;;;;;3.63;3.30;;;;;;;;;;4940269;29;20211;-64
2023/11/02 01:30:10;;;;;;;5.43;3.13;;;;;;;;;;4950112;29;20820;-65
2023/11/02 01:32:40;;;;;;;3.10;2.90;;;;;;;;;;4952679;29;20195;-64
2023/11/02 01:35:09;;;;;;;2.75;2.25;;;;;;;;;;4953975;29;20694;-65
2023/11/02 01:37:37;;;;;;;4.15;2.17;;;;;;;;;;4958260;29;20745;-64
2023/11/02 01:40:09;;;;;;;3.08;2.08;;;;;;;;;;4954754;29;20207;-64
2023/11/02 01:42:42;;;;;;;3.97;2.30;;;;;;;;;;4955958;29;20211;-64
2023/11/02 01:45:18;;;;;;;2.25;2.15;;;;;;;;;;4958466;28;20204;-64
2023/11/02 01:47:59;;;;;;;2.08;1.98;;;;;;;;;;4954237;29;20195;-64
2023/11/02 01:50:35;;;;;;;2.03;1.92;;;;;;;;;;4939873;29;20266;-64
2023/11/02 01:53:17;;;;;;;1.83;1.70;;;;;;;;;;4937897;29;20204;-64
2023/11/02 01:55:53;;;;;;;4.45;2.05;;;;;;;;;;4937934;29;20193;-64
2023/11/02 01:58:26;;;;;;;2.10;2.00;;;;;;;;;;4934669;29;20661;-64
2023/11/02 02:00:59;;;;;;;3.13;1.90;;;;;;;;;;4926521;29;20569;-68
2023/11/02 02:03:34;;;;;;;1.73;1.63;;;;;;;;;;4943236;29;20227;-68
2023/11/02 02:06:06;;;;;;;1.67;1.58;;;;;;;;;;4944043;29;20196;-68
2023/11/02 02:08:41;;;;;;;3.47;2.05;;;;;;;;;;4944431;29;20643;-68
2023/11/02 02:11:12;;;;;;;5.00;1.98;;;;;;;;;;4948366;29;20698;-68
2023/11/02 02:13:47;;;;;;;1.73;1.63;;;;;;;;;;4941354;29;20653;-68
2023/11/02 02:16:21;;;;;;;4.03;2.00;;;;;;;;;;4944158;29;20275;-69
2023/11/02 02:18:55;;;;;;;2.25;1.67;;;;;;;;;;4941621;29;20189;-67
2023/11/02 02:21:25;;;;;;;4.28;1.92;;;;;;;;;;4945410;29;20294;-69
2023/11/02 02:23:54;;;;;;;2.30;2.10;;;;;;;;;;4954120;29;20275;-68
2023/11/02 02:26:43;;;;;;;3.38;1.80;;;;;;;;;;4962593;29;20299;-67
2023/11/02 02:29:24;;;;;;;2.85;1.60;;;;;;;;;;4946096;28;20291;-69
2023/11/02 02:32:02;;;;;;;2.88;1.40;;;;;;;;;;4963340;29;20271;-68
2023/11/02 02:34:44;;;;;;;2.35;1.65;;;;;;;;;;4949557;29;20264;-69
2023/11/02 02:37:15;;;;;;;4.40;1.95;;;;;;;;;;4943197;29;20310;-68
2023/11/02 02:39:45;;;;;;;2.80;1.60;;;;;;;;;;4948490;29;20279;-68
2023/11/02 02:42:16;;;;;;;1.83;1.65;;;;;;;;;;4961800;29;20216;-68
2023/11/02 02:44:45;;;;;;;3.22;1.90;;;;;;;;;;4948442;28;20284;-69
2023/11/02 02:47:14;;;;;;;4.93;2.10;;;;;;;;;;4941022;29;20197;-68
2023/11/02 02:49:49;;;;;;;1.75;1.65;;;;;;;;;;4958567;29;20283;-69
2023/11/02 02:52:19;;;;;;;3.60;1.85;;;;;;;;;;4960164;29;20270;-69
2023/11/02 02:54:50;;;;;;;3.03;2.00;;;;;;;;;;4944227;29;20264;-68
2023/11/02 02:57:19;;;;;;;5.72;1.50;;;;;;;;;;4943001;29;20275;-68
2023/11/02 02:59:47;;;;;;;8.95;1.67;;;;;;;;;;4942922;29;20632;-68
2023/11/02 03:02:16;;;;;;;4.90;1.80;;;;;;;;;;4955830;29;20258;-67
2023/11/02 03:04:47;;;;;;;7.03;5.65;;;;;;;;;;4943512;28;20236;-68
2023/11/02 03:07:16;;;;;;;4.80;2.10;;;;;;;;;;4952562;29;20275;-68
2023/11/02 03:09:45;;;;;;;3.00;2.47;;;;;;;;;;4941112;29;20211;-68
2023/11/02 03:12:16;;;;;;;7.80;3.50;;;;;;;;;;4941435;29;20277;-68
2023/11/02 03:14:45;;;;;;;50.42;36.22;;;;;;;;;;4942879;29;20268;-68
2023/11/02 03:17:14;;;;;;;55.53;37.83;;;;;;;;;;4943597;29;20264;-68
2023/11/02 03:19:46;;;;;;;32.60;19.45;;;;;;;;;;4942885;29;20288;-67
2023/11/02 03:22:15;;;;;;;27.27;19.73;;;;;;;;;;4939767;29;20201;-68
2023/11/02 03:24:48;;;;;;;34.45;23.35;;;;;;;;;;4941056;29;20211;-68
2023/11/02 03:27:19;;;;;;;58.88;52.72;;;;;;;;;;4946040;29;20196;-66
2023/11/02 03:29:50;;;;;;;6.38;3.72;;;;;;;;;;4940424;29;20203;-68
2023/11/02 03:32:23;;;;;;;8.88;5.30;;;;;;;;;;4940814;29;20723;-68
2023/11/02 03:34:57;;;;;;;5.90;5.30;;;;;;;;;;4941536;29;20838;-67
2023/11/02 03:37:30;;;;;;;7.07;5.15;;;;;;;;;;4958568;29;20369;-68
2023/11/02 03:40:05;;;;;;;6.55;4.95;;;;;;;;;;4959218;29;20195;-68
2023/11/02 03:42:40;;;;;;;3.70;2.95;;;;;;;;;;4959507;29;20214;-67
2023/11/02 03:45:09;;;;;;;1.70;1.60;;;;;;;;;;4948339;29;20252;-68
2023/11/02 03:47:53;;;;;;;3.65;1.85;;;;;;;;;;4941139;29;20348;-68
2023/11/02 03:50:30;;;;;;;3.90;1.30;;;;;;;;;;4948348;29;20275;-67
2023/11/02 03:53:03;;;;;;;1.30;1.20;;;;;;;;;;4947711;29;20696;-68
2023/11/02 03:55:44;;;;;;;3.30;1.50;;;;;;;;;;4941445;29;20253;-67
2023/11/02 03:58:18;;;;;;;2.53;1.00;;;;;;;;;;4959331;29;20601;-68
2023/11/02 04:00:49;;;;;;;0.90;0.90;;;;;;;;;;4953791;29;20279;-68
2023/11/02 04:03:19;;;;;;;3.20;1.00;;;;;;;;;;4944097;29;20215;-67
2023/11/02 04:05:49;;;;;;;2.70;1.48;;;;;;;;;;4955008;29;20700;-68
2023/11/02 04:08:18;;;;;;;2.53;1.13;;;;;;;;;;4953056;29;20208;-68
2023/11/02 04:10:49;;;;;;;1.88;1.10;;;;;;;;;;4938242;29;20308;-68
2023/11/02 04:13:22;;;;;;;1.35;1.05;;;;;;;;;;4939492;29;20720;-67
2023/11/02 04:15:53;;;;;;;2.05;1.00;;;;;;;;;;4942764;29;20255;-68
2023/11/02 04:18:21;;;;;;;2.88;1.60;;;;;;;;;;4957624;28;20271;-67
2023/11/02 04:20:52;;;;;;;1.25;0.90;;;;;;;;;;4955002;29;20208;-68
2023/11/02 04:23:21;;;;;;;1.80;1.52;;;;;;;;;;4958385;29;20211;-68
2023/11/02 04:25:50;;;;;;;1.23;1.00;;;;;;;;;;4941220;29;20277;-68
2023/11/02 04:28:18;;;;;;;6.70;0.90;;;;;;;;;;4956809;29;20204;-68
2023/11/02 04:30:47;;;;;;;1.40;1.00;;;;;;;;;;4957542;29;20195;-68
2023/11/02 04:33:15;;;;;;;4.20;1.15;;;;;;;;;;4954346;29;20207;-67
2023/11/02 04:35:43;;;;;;;8.70;1.08;;;;;;;;;;4939431;29;20201;-68
2023/11/02 04:38:12;;;;;;;1.42;1.02;;;;;;;;;;4939437;29;20242;-68
2023/11/02 04:40:42;;;;;;;3.90;1.80;;;;;;;;;;4947901;29;20200;-68
2023/11/02 04:43:10;;;;;;;1.00;0.90;;;;;;;;;;4956684;28;20227;-68
2023/11/02 04:45:38;;;;;;;3.55;1.35;;;;;;;;;;4952078;29;20287;-67
2023/11/02 04:48:08;;;;;;;9.38;1.20;;;;;;;;;;4938282;29;20751;-65
2023/11/02 04:50:36;;;;;;;2.30;1.27;;;;;;;;;;4944232;29;20210;-68
2023/11/02 04:53:04;;;;;;;1.60;1.40;;;;;;;;;;4946340;28;20279;-68
2023/11/02 04:55:35;;;;;;;1.55;1.45;;;;;;;;;;4939402;29;20268;-68
2023/11/02 04:58:03;;;;;;;1.77;1.60;;;;;;;;;;4940476;29;20200;-68
2023/11/02 05:00:31;;;;;;;1.80;1.45;;;;;;;;;;4939870;29;20287;-68
2023/11/02 05:02:59;;;;;;;2.10;1.95;;;;;;;;;;4940415;29;20299;-68
2023/11/02 05:05:28;;;;;;;2.60;2.40;;;;;;;;;;4940894;29;20275;-68
2023/11/02 05:07:56;;;;;;;2.97;1.50;;;;;;;;;;4942032;29;20297;-67
2023/11/02 05:10:25;;;;;;;3.03;1.60;;;;;;;;;;4943877;29;20253;-68
2023/11/02 05:12:54;;;;;;;1.77;1.30;;;;;;;;;;4943750;29;20284;-67
2023/11/02 05:15:22;;;;;;;1.67;1.33;;;;;;;;;;4957356;29;20274;-68
2023/11/02 05:17:51;;;;;;;1.75;1.50;;;;;;;;;;4959054;29;20251;-67
2023/11/02 05:20:19;;;;;;;7.72;1.70;;;;;;;;;;4946960;29;20293;-67
2023/11/02 05:22:47;;;;;;;4.18;2.10;;;;;;;;;;4947444;29;20305;-68
2023/11/02 05:25:16;;;;;;;1.00;1.00;;;;;;;;;;4934046;29;20284;-68
2023/11/02 05:27:44;;;;;;;2.85;1.70;;;;;;;;;;4961276;29;20291;-67
2023/11/02 05:30:14;;;;;;;2.65;1.30;;;;;;;;;;4961611;29;20264;-68
2023/11/02 05:32:43;;;;;;;2.47;1.20;;;;;;;;;;4960925;29;20275;-65
2023/11/02 05:35:12;;;;;;;2.45;2.10;;;;;;;;;;4961896;28;20207;-67
2023/11/02 05:37:40;;;;;;;1.55;1.45;;;;;;;;;;4958339;29;20311;-68
2023/11/02 05:40:10;;;;;;;4.30;1.58;;;;;;;;;;4942064;29;20728;-68
2023/11/02 05:42:39;;;;;;;2.92;2.55;;;;;;;;;;4945963;29;20283;-68
2023/11/02 05:45:07;;;;;;;3.17;2.30;;;;;;;;;;4937864;29;20274;-67
2023/11/02 05:47:37;;;;;;;2.83;2.60;;;;;;;;;;4954179;29;20252;-68
2023/11/02 05:50:06;;;;;;;5.88;2.38;;;;;;;;;;4942388;29;20285;-68
2023/11/02 05:52:34;;;;;;;3.70;2.10;;;;;;;;;;4941876;29;20284;-68
2023/11/02 05:55:02;;;;;;;2.30;2.10;;;;;;;;;;4954587;29;20323;-67
2023/11/02 05:57:32;;;;;;;3.00;2.15;;;;;;;;;;4942645;29;20276;-68
2023/11/02 06:00:00;;;;;;;2.15;1.90;;;;;;;;;;4957674;29;20264;-67
2023/11/02 06:02:32;;;;;;;3.55;2.50;;;;;;;;;;4954161;29;20618;-67
2023/11/02 06:05:01;;;;;;;6.05;3.30;;;;;;;;;;4943931;29;20284;-68
2023/11/02 06:07:29;;;;;;;5.90;3.10;;;;;;;;;;4963770;28;20196;-68
2023/11/02 06:09:58;;;;;;;6.57;2.80;;;;;;;;;;4954449;29;20307;-67
2023/11/02 06:12:27;;;;;;;8.57;3.28;;;;;;;;;;4958492;29;20260;-68
2023/11/02 06:14:55;;;;;;;2.20;1.85;;;;;;;;;;4962888;28;20256;-68
2023/11/02 06:17:23;;;;;;;5.28;2.60;;;;;;;;;;4962180;29;20220;-67
2023/11/02 06:19:51;;;;;;;3.88;2.38;;;;;;;;;;4963385;29;20232;-68
2023/11/02 06:22:21;;;;;;;5.20;2.97;;;;;;;;;;4965963;29;20215;-66
2023/11/02 06:24:49;;;;;;;6.15;2.55;;;;;;;;;;4960382;29;20252;-67
2023/11/02 06:27:17;;;;;;;4.05;2.95;;;;;;;;;;4962252;29;20251;-67
2023/11/02 06:29:45;;;;;;;3.05;2.80;;;;;;;;;;4955041;29;20667;-68
2023/11/02 06:32:13;;;;;;;3.83;3.50;;;;;;;;;;4959109;29;20460;-68
2023/11/02 06:34:42;;;;;;;9.93;6.50;;;;;;;;;;4972415;29;20208;-67
2023/11/02 06:37:11;;;;;;;15.98;8.05;;;;;;;;;;4967967;29;20263;-68
2023/11/02 06:39:41;;;;;;;9.30;5.43;;;;;;;;;;4975522;29;20243;-63
2023/11/02 06:42:09;;;;;;;7.60;3.65;;;;;;;;;;5020266;23;20258;-67
2023/11/02 06:44:39;;;;;;;12.43;7.32;;;;;;;;;;4975283;28;20239;-67
2023/11/02 06:47:07;;;;;;;14.98;9.00;;;;;;;;;;4974758;29;20302;-67
2023/11/02 06:49:35;;;;;;;6.78;2.92;;;;;;;;;;4974751;28;20227;-67
2023/11/02 06:52:04;;;;;;;5.95;3.50;;;;;;;;;;4972835;29;20243;-68
2023/11/02 06:54:32;;;;;;;22.23;11.50;;;;;;;;;;4974174;28;20231;-68
2023/11/02 06:57:02;;;;;;;17.50;6.30;;;;;;;;;;4974545;28;20239;-68
2023/11/02 06:59:31;;;;;;;5.07;3.40;;;;;;;;;;4973914;29;20318;-68
2023/11/02 07:02:00;;;;;;;2.88;2.17;;;;;;;;;;4972648;28;20215;-66
2023/11/02 07:04:28;;;;;;;1.75;1.60;;;;;;;;;;4976035;29;20254;-66
2023/11/02 07:06:56;;;;;;;5.07;2.22;;;;;;;;;;4977627;29;20231;-67
2023/11/02 07:09:24;;;;;;;2.03;1.83;;;;;;;;;;4978748;29;20216;-68
2023/11/02 07:11:53;;;;;;;1.88;1.77;;;;;;;;;;4977509;28;20267;-67
2023/11/02 07:14:22;;;;;;;10.63;2.10;;;;;;;;;;4977882;29;20218;-66
2023/11/02 07:16:50;;;;;;;7.30;2.17;;;;;;;;;;4976907;29;20226;-67
2023/11/02 07:19:18;;;;;;;5.97;2.10;;;;;;;;;;4977962;28;20223;-67
2023/11/02 07:21:47;;;;;;;3.92;1.90;;;;;;;;;;4977599;29;20236;-68
2023/11/02 07:24:15;;;;;;;4.10;2.10;;;;;;;;;;4975799;29;20279;-68
2023/11/02 07:26:43;;;;;;;4.47;2.17;;;;;;;;;;4978551;28;20215;-68
2023/11/02 07:29:11;;;;;;;3.03;2.17;;;;;;;;;;4977496;29;20238;-66
2023/11/02 07:31:42;;;;;;;5.93;2.90;;;;;;;;;;4977093;29;20239;-66
2023/11/02 07:34:10;;;;;;;7.70;2.72;;;;;;;;;;4977728;29;20216;-67
2023/11/02 07:36:38;;;;;;;4.18;3.00;;;;;;;;;;4977195;29;20244;-65
2023/11/02 07:39:06;;;;;;;2.28;2.00;;;;;;;;;;4976300;29;20238;-66
2023/11/02 07:41:35;;;;;;;3.15;2.38;;;;;;;;;;4976895;28;20251;-68
2023/11/02 07:44:03;;;;;;;2.58;2.10;;;;;;;;;;4967599;28;20261;-67
2023/11/02 07:46:32;;;;;;;6.22;3.10;;;;;;;;;;4969077;29;20231;-67
2023/11/02 07:49:02;;;;;;;2.40;2.15;;;;;;;;;;4977132;28;20263;-68
2023/11/02 07:51:30;;;;;;;2.33;1.77;;;;;;;;;;4975749;29;20308;-65
2023/11/02 07:53:59;;;;;;;1.80;1.55;;;;;;;;;;4977338;28;20236;-65
2023/11/02 07:56:27;;;;;;;1.90;1.77;;;;;;;;;;4976687;28;20219;-67
2023/11/02 07:58:55;;;;;;;3.78;1.98;;;;;;;;;;4977471;29;20231;-67
2023/11/02 08:01:24;;;;;;;3.17;2.30;;;;;;;;;;4975056;28;20528;-67
2023/11/02 08:03:52;;;;;;;8.98;1.80;;;;;;;;;;4974993;28;20436;-67
2023/11/02 08:06:22;;;;;;;8.38;2.00;;;;;;;;;;4975548;28;20236;-68
2023/11/02 08:08:51;;;;;;;1.80;1.70;;;;;;;;;;4977150;28;20192;-65
2023/11/02 08:11:19;;;;;;;1.40;1.30;;;;;;;;;;4973990;29;20238;-68
2023/11/02 08:13:48;;;;;;;2.75;2.13;;;;;;;;;;4975584;29;20227;-67
2023/11/02 08:16:20;;;;;;;3.25;1.67;;;;;;;;;;4977010;29;20235;-67
2023/11/02 08:18:49;;;;;;;4.03;1.88;;;;;;;;;;4994860;23;20275;-82
2023/11/02 08:21:17;;;;;;;2.60;1.85;;;;;;;;;;4942573;29;20230;-81
2023/11/02 08:23:47;;;;;;;4.05;2.78;;;;;;;;;;4957922;29;20640;-81
2023/11/02 08:26:15;;;;;;;3.72;2.20;;;;;;;;;;4959186;28;20291;-81
2023/11/02 08:28:44;;;;;;;2.38;1.73;;;;;;;;;;4958903;29;20335;-81
2023/11/02 08:31:12;;;;;;;3.03;2.50;;;;;;;;;;4958470;29;20284;-83
2023/11/02 08:33:41;;;;;;;9.65;8.65;;;;;;;;;;4958733;29;20327;-80
2023/11/02 08:36:14;;;;;;;4.47;2.30;;;;;;;;;;4943510;29;20291;-81
2023/11/02 08:38:43;;;;;;;4.97;3.42;;;;;;;;;;4956905;28;20188;-83
2023/11/02 08:41:19;;;;;;;4.40;3.00;;;;;;;;;;4959349;28;20291;-82
2023/11/02 08:43:48;;;;;;;3.15;2.60;;;;;;;;;;4954974;28;20196;-80
2023/11/02 08:46:17;;;;;;;10.40;2.22;;;;;;;;;;4938084;29;20248;-83
2023/11/02 08:48:46;;;;;;;3.50;2.53;;;;;;;;;;4943383;29;20236;-80
2023/11/02 08:51:16;;;;;;;4.93;3.38;;;;;;;;;;4958614;29;20284;-82
2023/11/02 08:53:44;;;;;;;1.58;1.48;;;;;;;;;;4958672;29;20207;-83
2023/11/02 08:56:12;;;;;;;1.63;1.45;;;;;;;;;;4957074;29;20309;-83
2023/11/02 08:58:43;;;;;;;1.60;1.50;;;;;;;;;;4958970;29;20196;-81
2023/11/02 09:01:13;;;;;;;3.38;1.77;;;;;;;;;;4959222;29;20232;-81
2023/11/02 09:03:41;;;;;;;4.13;2.95;;;;;;;;;;4957417;28;20238;-81
2023/11/02 09:06:10;;;;;;;1.60;1.20;;;;;;;;;;4949865;29;20674;-81
2023/11/02 09:08:38;;;;;;;3.83;1.50;;;;;;;;;;4945283;28;20209;-82
2023/11/02 09:11:07;;;;;;;2.78;1.70;;;;;;;;;;4939785;29;20205;-86
2023/11/02 09:13:35;;;;;;;1.58;1.30;;;;;;;;;;4938522;29;20257;-83
2023/11/02 09:16:05;;;;;;;2.72;1.42;;;;;;;;;;4939158;28;20260;-80
2023/11/02 09:18:34;;;;;;;1.20;1.10;;;;;;;;;;4950165;29;20282;-82
2023/11/02 09:21:05;;;;;;;1.63;1.10;;;;;;;;;;4960215;29;20266;-81
2023/11/02 09:23:34;;;;;;;2.08;0.95;;;;;;;;;;4946324;29;20651;-82
2023/11/02 09:26:02;;;;;;;1.60;1.50;;;;;;;;;;4919961;29;20217;-83
2023/11/02 09:28:31;;;;;;;1.10;1.00;;;;;;;;;;4930957;29;20279;-81
2023/11/02 09:30:59;;;;;;;1.20;1.10;;;;;;;;;;4923421;29;20283;-83
2023/11/02 09:33:28;;;;;;;1.90;0.93;;;;;;;;;;4946985;29;20706;-81
2023/11/02 09:35:57;;;;;;;0.90;0.90;;;;;;;;;;4958765;29;20762;-81
2023/11/02 09:38:26;;;;;;;1.45;0.90;;;;;;;;;;4958893;29;20278;-81
2023/11/02 09:40:54;;;;;;;0.80;0.80;;;;;;;;;;4940368;29;20291;-81
2023/11/02 09:43:23;;;;;;;0.63;0.63;;;;;;;;;;4946548;28;20292;-83
2023/11/02 09:45:52;;;;;;;1.00;1.00;;;;;;;;;;4926248;29;20746;-84
2023/11/02 09:48:20;;;;;;;1.42;0.90;;;;;;;;;;4959508;29;20280;-82
2023/11/02 09:50:51;;;;;;;0.83;0.83;;;;;;;;;;4949433;28;20291;-85
2023/11/02 09:53:19;;;;;;;0.90;0.90;;;;;;;;;;4952987;29;20662;-82
2023/11/02 09:55:48;;;;;;;0.83;0.83;;;;;;;;;;4956597;29;21271;-81
2023/11/02 09:58:17;;;;;;;1.70;0.90;;;;;;;;;;4961584;28;20602;-85
2023/11/02 10:00:46;;;;;;;1.67;0.80;;;;;;;;;;4961851;29;20250;-83
2023/11/02 10:03:14;;;;;;;1.23;0.80;;;;;;;;;;4957787;28;20677;-83
2023/11/02 10:05:42;;;;;;;1.13;1.02;;;;;;;;;;4956121;28;20660;-81
2023/11/02 10:08:12;;;;;;;2.63;1.00;;;;;;;;;;4947150;29;20200;-82
2023/11/02 10:10:40;;;;;;;0.80;0.80;;;;;;;;;;4959215;29;21041;-80
2023/11/02 10:13:09;;;;;;;1.50;1.27;;;;;;;;;;4944926;29;21197;-81
2023/11/02 10:15:37;;;;;;;0.70;0.70;;;;;;;;;;4941588;29;21039;-80
2023/11/02 10:18:13;;;;;;;0.60;0.60;;;;;;;;;;4958620;29;20631;-80
2023/11/02 10:20:41;;;;;;;0.73;0.70;;;;;;;;;;4936585;29;20738;-81
2023/11/02 10:23:13;;;;;;;1.15;0.90;;;;;;;;;;4936525;29;20661;-82
2023/11/02 10:25:42;;;;;;;1.13;0.80;;;;;;;;;;4941768;29;20196;-81
2023/11/02 10:28:14;;;;;;;1.63;0.83;;;;;;;;;;4950646;29;20608;-80
2023/11/02 10:30:42;;;;;;;0.70;0.70;;;;;;;;;;4933658;28;20671;-80
2023/11/02 10:33:11;;;;;;;4.05;0.77;;;;;;;;;;4946753;29;20629;-81
2023/11/02 10:35:41;;;;;;;0.60;0.60;;;;;;;;;;4942102;29;20209;-84
2023/11/02 10:38:09;;;;;;;1.80;0.60;;;;;;;;;;4949360;28;21261;-82
2023/11/02 10:40:46;;;;;;;2.83;0.80;;;;;;;;;;4958134;29;20685;-83
2023/11/02 10:43:20;;;;;;;2.73;1.37;;;;;;;;;;4953516;29;20188;-81
2023/11/02 10:45:50;;;;;;;0.80;0.70;;;;;;;;;;4952070;29;20615;-83
2023/11/02 10:48:18;;;;;;;1.07;0.87;;;;;;;;;;4952207;29;20605;-83
2023/11/02 10:50:47;;;;;;;0.70;0.70;;;;;;;;;;4959431;29;21175;-80
2023/11/02 10:53:18;;;;;;;2.67;1.30;;;;;;;;;;4941517;29;20276;-80
2023/11/02 10:55:50;;;;;;;3.77;0.70;;;;;;;;;;4925799;29;20642;-81
2023/11/02 10:58:19;;;;;;;1.03;0.80;;;;;;;;;;4950238;29;21068;-80
2023/11/02 11:00:52;;;;;;;1.33;1.13;;;;;;;;;;4956570;28;20697;-81
2023/11/02 11:03:22;;;;;;;2.07;1.00;;;;;;;;;;4957504;28;20596;-81
2023/11/02 11:05:51;;;;;;;1.70;1.13;;;;;;;;;;4953975;29;20630;-81
2023/11/02 11:08:20;;;;;;;1.40;0.90;;;;;;;;;;4958264;29;20631;-82
2023/11/02 11:10:50;;;;;;;1.30;0.80;;;;;;;;;;4963417;29;20663;-83
2023/11/02 11:13:20;;;;;;;1.23;0.90;;;;;;;;;;4957840;29;20622;-81
2023/11/02 11:15:49;;;;;;;1.33;0.80;;;;;;;;;;4947981;29;20616;-83
2023/11/02 11:18:18;;;;;;;2.40;1.07;;;;;;;;;;4941778;28;20609;-86
2023/11/02 11:20:47;;;;;;;1.30;0.90;;;;;;;;;;4943970;29;20748;-83
2023/11/02 11:23:15;;;;;;;2.78;0.98;;;;;;;;;;4959150;29;20598;-82
2023/11/02 11:25:58;;;;;;;4.93;0.80;;;;;;;;;;4956483;28;20736;-83
2023/11/02 11:28:29;;;;;;;1.60;1.10;;;;;;;;;;4923329;29;20626;-84
2023/11/02 11:30:57;;;;;;;0.90;0.90;;;;;;;;;;4953109;29;20287;-83
2023/11/02 11:33:47;;;;;;;1.93;1.00;;;;;;;;;;4964414;29;20594;-83
2023/11/02 11:36:19;;;;;;;0.95;0.85;;;;;;;;;;4948747;29;20648;-85
2023/11/02 11:38:48;;;;;;;0.70;0.70;;;;;;;;;;4967408;28;20230;-83
2023/11/02 11:41:37;;;;;;;3.23;1.27;;;;;;;;;;4946071;29;20698;-86
2023/11/02 11:44:10;;;;;;;4.50;0.97;;;;;;;;;;4948316;28;20679;-83
2023/11/02 11:46:46;;;;;;;1.10;1.00;;;;;;;;;;4944453;29;20619;-85
2023/11/02 11:49:34;;;;;;;6.13;1.27;;;;;;;;;;4918557;29;20665;-83
2023/11/02 11:52:03;;;;;;;1.53;0.97;;;;;;;;;;4948933;29;20697;-82
2023/11/02 11:54:32;;;;;;;2.67;1.20;;;;;;;;;;4950470;29;20693;-81
2023/11/02 11:57:00;;;;;;;1.73;1.27;;;;;;;;;;4941936;29;20681;-85
2023/11/02 11:59:44;;;;;;;3.23;1.10;;;;;;;;;;4967678;29;20628;-81
2023/11/02 12:02:27;;;;;;;2.40;1.20;;;;;;;;;;4960213;28;20689;-88
2023/11/02 12:04:56;;;;;;;0.90;0.70;;;;;;;;;;4966982;29;20691;-85
2023/11/02 12:07:25;;;;;;;1.50;1.00;;;;;;;;;;4966419;28;20724;-84
2023/11/02 12:09:53;;;;;;;0.67;0.67;;;;;;;;;;4948828;29;20690;-82
2023/11/02 12:12:24;;;;;;;3.17;0.97;;;;;;;;;;4941205;29;21555;-81
2023/11/02 12:14:53;;;;;;;1.87;1.03;;;;;;;;;;4942897;29;20748;-82
2023/11/02 12:17:21;;;;;;;1.30;0.97;;;;;;;;;;4942182;29;20743;-82
2023/11/02 12:19:49;;;;;;;3.03;0.90;;;;;;;;;;4951256;29;20730;-81
2023/11/02 12:22:19;;;;;;;1.30;0.70;;;;;;;;;;4938960;28;20696;-83
2023/11/02 12:24:58;;;;;;;3.27;0.97;;;;;;;;;;4934342;29;20677;-84
2023/11/02 12:27:26;;;;;;;3.20;1.00;;;;;;;;;;4960683;29;20733;-84
2023/11/02 12:29:58;;;;;;;1.53;0.80;;;;;;;;;;4960117;29;20602;-84
2023/11/02 12:32:26;;;;;;;3.27;1.00;;;;;;;;;;4951203;29;21030;-83
2023/11/02 12:34:56;;;;;;;0.80;0.80;;;;;;;;;;4941017;28;20734;-83
2023/11/02 12:37:26;;;;;;;1.57;0.90;;;;;;;;;;4946005;29;20653;-86
2023/11/02 12:39:57;;;;;;;8.27;1.10;;;;;;;;;;4953008;28;20692;-83
2023/11/02 12:42:26;;;;;;;1.10;1.00;;;;;;;;;;4926982;29;20626;-82
2023/11/02 12:44:59;;;;;;;1.00;0.80;;;;;;;;;;4933232;29;20760;-82
2023/11/02 12:47:37;;;;;;;2.97;1.13;;;;;;;;;;4943130;29;20719;-82
2023/11/02 12:50:06;;;;;;;1.10;1.10;;;;;;;;;;4940437;29;20590;-86
2023/11/02 12:52:45;;;;;;;2.30;0.90;;;;;;;;;;4924275;29;21314;-82
2023/11/02 12:55:14;;;;;;;2.13;1.73;;;;;;;;;;4941647;29;20682;-80
2023/11/02 12:57:43;;;;;;;1.53;0.80;;;;;;;;;;4937722;28;20719;-81
2023/11/02 13:00:14;;;;;;;1.53;1.00;;;;;;;;;;4940961;28;21210;-84
2023/11/02 13:02:43;;;;;;;2.17;0.90;;;;;;;;;;4947291;28;20668;-84
2023/11/02 13:05:18;;;;;;;1.17;1.03;;;;;;;;;;4941569;29;20694;-83
2023/11/02 13:07:52;;;;;;;1.60;1.13;;;;;;;;;;4954472;29;20626;-83
2023/11/02 13:10:21;;;;;;;1.37;1.10;;;;;;;;;;4937067;29;20682;-82
2023/11/02 13:12:50;;;;;;;2.17;1.73;;;;;;;;;;4922645;29;20632;-83
2023/11/02 13:15:18;;;;;;;1.33;1.00;;;;;;;;;;4932675;29;20633;-81
2023/11/02 13:17:46;;;;;;;5.90;1.87;;;;;;;;;;4941400;28;20735;-83
2023/11/02 13:20:17;;;;;;;1.17;1.00;;;;;;;;;;4947100;28;20655;-82
2023/11/02 13:22:47;;;;;;;2.70;2.50;;;;;;;;;;4942943;29;20696;-81
2023/11/02 13:25:18;;;;;;;1.20;1.10;;;;;;;;;;4952766;29;20583;-83
2023/11/02 13:27:47;;;;;;;1.30;1.30;;;;;;;;;;4945405;29;20631;-81
2023/11/02 13:30:16;;;;;;;8.53;7.13;;;;;;;;;;4957745;28;20677;-80
2023/11/02 13:32:44;;;;;;;31.47;25.23;;;;;;;;;;4944718;29;20750;-82
2023/11/02 13:35:12;;;;;;;5.47;5.00;;;;;;;;;;4945033;29;20665;-81
2023/11/02 13:37:41;;;;;;;1.47;1.37;;;;;;;;;;4943522;28;20666;-81
2023/11/02 13:40:10;;;;;;;2.77;1.33;;;;;;;;;;4927946;29;20599;-82
2023/11/02 13:42:41;;;;;;;1.10;1.10;;;;;;;;;;4943000;29;20695;-82
2023/11/02 13:45:10;;;;;;;2.50;1.17;;;;;;;;;;4944096;28;20653;-83
2023/11/02 13:47:38;;;;;;;4.43;1.30;;;;;;;;;;4946233;29;20687;-81
2023/11/02 13:50:09;;;;;;;1.73;1.40;;;;;;;;;;4939753;29;20800;-85
2023/11/02 13:52:37;;;;;;;2.15;1.30;;;;;;;;;;4951909;29;20679;-84
2023/11/02 13:55:07;;;;;;;3.33;1.23;;;;;;;;;;4958237;29;20794;-83
2023/11/02 13:57:38;;;;;;;0.80;0.80;;;;;;;;;;4941930;29;20682;-85
2023/11/02 14:00:11;;;;;;;3.95;1.35;;;;;;;;;;4947529;28;20839;-84
2023/11/02 14:02:39;;;;;;;1.37;1.27;;;;;;;;;;4942495;29;20264;-86
2023/11/02 14:05:08;;;;;;;1.13;0.87;;;;;;;;;;4937245;28;21365;-81
2023/11/02 14:07:36;;;;;;;1.63;1.53;;;;;;;;;;4940189;29;20717;-83
2023/11/02 14:10:05;;;;;;;2.03;1.93;;;;;;;;;;4934322;29;20701;-83
2023/11/02 14:12:33;;;;;;;1.33;1.23;;;;;;;;;;4940674;28;20671;-84
2023/11/02 14:15:02;;;;;;;1.40;1.30;;;;;;;;;;4929456;29;20697;-84
2023/11/02 14:17:31;;;;;;;1.10;1.07;;;;;;;;;;4963371;28;20863;-83
2023/11/02 14:20:00;;;;;;;2.27;1.33;;;;;;;;;;4952961;29;20713;-84
2023/11/02 14:22:28;;;;;;;1.70;1.60;;;;;;;;;;4925248;29;20724;-83
2023/11/02 14:24:56;;;;;;;1.30;1.20;;;;;;;;;;4943048;29;20709;-84
2023/11/02 14:27:25;;;;;;;2.07;1.00;;;;;;;;;;4946177;28;20779;-85
2023/11/02 14:29:56;;;;;;;1.50;1.40;;;;;;;;;;4947168;29;20711;-84
2023/11/02 14:32:24;;;;;;;1.77;1.20;;;;;;;;;;4941665;29;20671;-85
2023/11/02 14:34:54;;;;;;;2.33;1.37;;;;;;;;;;4945770;29;21098;-86
2023/11/02 14:37:23;;;;;;;1.90;1.33;;;;;;;;;;4950417;29;20616;-86
2023/11/02 14:39:51;;;;;;;4.90;2.50;;;;;;;;;;4957108;28;20613;-86
2023/11/02 14:42:22;;;;;;;3.00;1.67;;;;;;;;;;4960028;29;20715;-85
2023/11/02 14:44:50;;;;;;;2.25;1.42;;;;;;;;;;4955016;28;20711;-86
2023/11/02 14:47:21;;;;;;;2.47;1.90;;;;;;;;;;4966008;28;20243;-84
2023/11/02 14:49:49;;;;;;;1.60;1.40;;;;;;;;;;4959084;29;20631;-85
2023/11/02 14:52:21;;;;;;;1.57;1.47;;;;;;;;;;4957833;28;20686;-84
2023/11/02 14:54:52;;;;;;;2.15;1.70;;;;;;;;;;4948726;29;20658;-84
2023/11/02 14:57:20;;;;;;;2.03;1.80;;;;;;;;;;4956147;29;20236;-84
2023/11/02 14:59:48;;;;;;;5.63;2.10;;;;;;;;;;4963544;28;20667;-84
2023/11/02 15:02:17;;;;;;;1.67;1.53;;;;;;;;;;4958301;29;20204;-82